sensor_id;sensor_type;location;lat;lon;timestamp;pressure;altitude;pressure_sealevel;temperature;humidity
14343;BME280;7255;53.596;9.960;2022-10-16T00:00:18;100719.09;;;14.09;nan
14343;BME280;7255;53.596;9.960;2022-10-16T00:03:04;100718.41;;;14.18;nan
14343;BME280;7255;53.596;9.960;2022-10-16T00:05:42;100716.44;;;14.14;nan
14343;BME280;7255;53.596;9.960;2022-10-16T00:08:14;100714.00;;;14.12;nan
14343;BME280;7255;53.596;9.960;2022-10-16T00:10:46;100727.25;;;14.14;nan
14343;BME280;7255;53.596;9.960;2022-10-16T00:16:40;100722.34;;;14.11;nan
14343;BME280;7255;53.596;9.960;2022-10-16T00:19:07;100732.00;;;14.06;nan
14343;BME280;7255;53.596;9.960;2022-10-16T00:21:34;100721.50;;;14.10;nan
14343;BME280;7255;53.596;9.960;2022-10-16T00:24:03;100716.09;;;14.10;nan
14343;BME280;7255;53.596;9.960;2022-10-16T00:26:35;100722.84;;;14.08;nan
14343;BME280;7255;53.596;9.960;2022-10-16T00:29:02;100726.09;;;14.10;nan
14343;BME280;7255;53.596;9.960;2022-10-16T00:31:28;100727.09;;;14.03;nan
14343;BME280;7255;53.596;9.960;2022-10-16T00:33:56;100735.28;;;14.09;nan
14343;BME280;7255;53.596;9.960;2022-10-16T00:36:25;100728.87;;;14.15;nan
14343;BME280;7255;53.596;9.960;2022-10-16T00:38:52;100726.44;;;14.13;nan
14343;BME280;7255;53.596;9.960;2022-10-16T00:41:20;100731.03;;;14.13;nan
14343;BME280;7255;53.596;9.960;2022-10-16T00:43:49;100740.69;;;14.09;nan
14343;BME280;7255;53.596;9.960;2022-10-16T00:46:20;100744.28;;;14.14;nan
14343;BME280;7255;53.596;9.960;2022-10-16T00:48:49;100742.16;;;14.16;nan
14343;BME280;7255;53.596;9.960;2022-10-16T00:51:21;100746.56;;;14.22;nan
14343;BME280;7255;53.596;9.960;2022-10-16T00:53:49;100750.00;;;14.18;nan
14343;BME280;7255;53.596;9.960;2022-10-16T00:56:16;100749.50;;;14.21;nan
14343;BME280;7255;53.596;9.960;2022-10-16T00:58:43;100744.84;;;14.16;nan
14343;BME280;7255;53.596;9.960;2022-10-16T01:01:09;100755.41;;;14.18;nan
14343;BME280;7255;53.596;9.960;2022-10-16T01:03:37;100747.38;;;14.23;nan
14343;BME280;7255;53.596;9.960;2022-10-16T01:06:09;100747.03;;;14.19;nan
14343;BME280;7255;53.596;9.960;2022-10-16T01:08:55;100753.44;;;14.13;nan
14343;BME280;7255;53.596;9.960;2022-10-16T01:11:32;100755.09;;;14.14;nan
14343;BME280;7255;53.596;9.960;2022-10-16T01:14:10;100762.63;;;14.12;nan
14343;BME280;7255;53.596;9.960;2022-10-16T01:16:43;100748.53;;;14.10;nan
14343;BME280;7255;53.596;9.960;2022-10-16T01:19:16;100764.41;;;14.06;nan
14343;BME280;7255;53.596;9.960;2022-10-16T01:21:47;100765.06;;;13.97;nan
14343;BME280;7255;53.596;9.960;2022-10-16T01:24:27;100759.53;;;13.86;nan
14343;BME280;7255;53.596;9.960;2022-10-16T01:27:08;100770.62;;;13.90;nan
14343;BME280;7255;53.596;9.960;2022-10-16T01:29:40;100764.94;;;13.86;nan
14343;BME280;7255;53.596;9.960;2022-10-16T01:32:14;100761.81;;;13.78;nan
14343;BME280;7255;53.596;9.960;2022-10-16T01:34:47;100765.75;;;13.70;nan
14343;BME280;7255;53.596;9.960;2022-10-16T01:37:18;100775.87;;;13.63;nan
14343;BME280;7255;53.596;9.960;2022-10-16T01:39:48;100771.28;;;13.63;nan
14343;BME280;7255;53.596;9.960;2022-10-16T01:42:20;100762.97;;;13.65;nan
14343;BME280;7255;53.596;9.960;2022-10-16T01:44:49;100773.75;;;13.65;nan
14343;BME280;7255;53.596;9.960;2022-10-16T01:47:18;100761.16;;;13.54;nan
14343;BME280;7255;53.596;9.960;2022-10-16T01:49:46;100768.81;;;13.45;nan
14343;BME280;7255;53.596;9.960;2022-10-16T01:52:15;100768.31;;;13.48;nan
14343;BME280;7255;53.596;9.960;2022-10-16T01:54:46;100767.03;;;13.51;nan
14343;BME280;7255;53.596;9.960;2022-10-16T01:57:14;100764.22;;;13.45;nan
14343;BME280;7255;53.596;9.960;2022-10-16T01:59:46;100768.97;;;13.38;nan
14343;BME280;7255;53.596;9.960;2022-10-16T02:02:14;100766.16;;;13.33;nan
14343;BME280;7255;53.596;9.960;2022-10-16T02:04:43;100775.16;;;13.39;nan
14343;BME280;7255;53.596;9.960;2022-10-16T02:07:11;100770.59;;;13.39;nan
14343;BME280;7255;53.596;9.960;2022-10-16T02:09:38;100766.16;;;13.33;nan
14343;BME280;7255;53.596;9.960;2022-10-16T02:12:09;100765.69;;;13.36;nan
14343;BME280;7255;53.596;9.960;2022-10-16T02:14:38;100777.28;;;13.37;nan
14343;BME280;7255;53.596;9.960;2022-10-16T02:17:12;100775.34;;;13.32;nan
14343;BME280;7255;53.596;9.960;2022-10-16T02:19:38;100780.72;;;13.32;nan
14343;BME280;7255;53.596;9.960;2022-10-16T02:22:07;100777.91;;;13.27;nan
14343;BME280;7255;53.596;9.960;2022-10-16T02:24:39;100772.50;;;13.27;nan
14343;BME280;7255;53.596;9.960;2022-10-16T02:27:11;100773.69;;;13.31;nan
14343;BME280;7255;53.596;9.960;2022-10-16T02:29:42;100770.50;;;13.22;nan
14343;BME280;7255;53.596;9.960;2022-10-16T02:32:16;100771.47;;;13.16;nan
14343;BME280;7255;53.596;9.960;2022-10-16T02:34:44;100776.19;;;13.09;nan
14343;BME280;7255;53.596;9.960;2022-10-16T02:37:12;100779.91;;;13.20;nan
14343;BME280;7255;53.596;9.960;2022-10-16T02:39:40;100782.63;;;13.20;nan
14343;BME280;7255;53.596;9.960;2022-10-16T02:42:09;100776.53;;;13.13;nan
14343;BME280;7255;53.596;9.960;2022-10-16T02:44:36;100773.28;;;13.10;nan
14343;BME280;7255;53.596;9.960;2022-10-16T02:47:02;100771.63;;;13.09;nan
14343;BME280;7255;53.596;9.960;2022-10-16T02:49:30;100769.66;;;13.05;nan
14343;BME280;7255;53.596;9.960;2022-10-16T02:51:56;100784.69;;;13.01;nan
14343;BME280;7255;53.596;9.960;2022-10-16T02:54:22;100784.81;;;12.94;nan
14343;BME280;7255;53.596;9.960;2022-10-16T02:56:49;100777.81;;;12.93;nan
14343;BME280;7255;53.596;9.960;2022-10-16T02:59:15;100778.72;;;12.87;nan
14343;BME280;7255;53.596;9.960;2022-10-16T03:01:42;100769.25;;;12.84;nan
14343;BME280;7255;53.596;9.960;2022-10-16T03:04:08;100772.53;;;12.86;nan
14343;BME280;7255;53.596;9.960;2022-10-16T03:06:35;100777.22;;;12.79;nan
14343;BME280;7255;53.596;9.960;2022-10-16T03:09:02;100777.22;;;12.79;nan
14343;BME280;7255;53.596;9.960;2022-10-16T03:11:28;100768.91;;;12.81;nan
14343;BME280;7255;53.596;9.960;2022-10-16T03:13:55;100758.25;;;12.74;nan
14343;BME280;7255;53.596;9.960;2022-10-16T03:16:21;100760.50;;;12.65;nan
14343;BME280;7255;53.596;9.960;2022-10-16T03:18:48;100757.22;;;12.63;nan
14343;BME280;7255;53.596;9.960;2022-10-16T03:21:14;100758.87;;;12.64;nan
14343;BME280;7255;53.596;9.960;2022-10-16T03:23:42;100760.84;;;12.69;nan
14343;BME280;7255;53.596;9.960;2022-10-16T03:26:08;100764.72;;;12.61;nan
14343;BME280;7255;53.596;9.960;2022-10-16T03:28:34;100760.28;;;12.55;nan
14343;BME280;7255;53.596;9.960;2022-10-16T03:31:01;100764.03;;;12.54;nan
14343;BME280;7255;53.596;9.960;2022-10-16T03:33:27;100760.75;;;12.52;nan
14343;BME280;7255;53.596;9.960;2022-10-16T03:35:54;100771.06;;;12.55;nan
14343;BME280;7255;53.596;9.960;2022-10-16T03:38:21;100779.28;;;12.60;nan
14343;BME280;7255;53.596;9.960;2022-10-16T03:40:49;100766.84;;;12.59;nan
14343;BME280;7255;53.596;9.960;2022-10-16T03:43:15;100775.50;;;12.61;nan
14343;BME280;7255;53.596;9.960;2022-10-16T03:45:41;100770.13;;;12.61;nan
14343;BME280;7255;53.596;9.960;2022-10-16T03:48:08;100784.16;;;12.63;nan
14343;BME280;7255;53.596;9.960;2022-10-16T03:50:34;100774.88;;;12.71;nan
14343;BME280;7255;53.596;9.960;2022-10-16T03:53:00;100781.94;;;12.72;nan
14343;BME280;7255;53.596;9.960;2022-10-16T03:55:27;100783.25;;;12.69;nan
14343;BME280;7255;53.596;9.960;2022-10-16T03:57:54;100777.84;;;12.69;nan
14343;BME280;7255;53.596;9.960;2022-10-16T04:00:21;100774.88;;;12.71;nan
14343;BME280;7255;53.596;9.960;2022-10-16T04:02:47;100782.75;;;12.73;nan
14343;BME280;7255;53.596;9.960;2022-10-16T04:05:13;100775.22;;;12.75;nan
14343;BME280;7255;53.596;9.960;2022-10-16T04:07:40;100783.25;;;12.69;nan
14343;BME280;7255;53.596;9.960;2022-10-16T04:10:07;100800.22;;;12.70;nan
14343;BME280;7255;53.596;9.960;2022-10-16T04:12:33;100804.81;;;12.69;nan
14343;BME280;7255;53.596;9.960;2022-10-16T04:15:01;100807.59;;;12.75;nan
14343;BME280;7255;53.596;9.960;2022-10-16T04:17:27;100813.13;;;12.68;nan
14343;BME280;7255;53.596;9.960;2022-10-16T04:19:53;100803.97;;;12.69;nan
14343;BME280;7255;53.596;9.960;2022-10-16T04:22:20;100823.06;;;12.67;nan
14343;BME280;7255;53.596;9.960;2022-10-16T04:24:46;100819.31;;;12.68;nan
14343;BME280;7255;53.596;9.960;2022-10-16T04:27:12;100814.75;;;12.69;nan
14343;BME280;7255;53.596;9.960;2022-10-16T04:29:38;100823.06;;;12.67;nan
14343;BME280;7255;53.596;9.960;2022-10-16T04:32:07;100817.22;;;12.70;nan
14343;BME280;7255;53.596;9.960;2022-10-16T04:34:34;100821.34;;;12.73;nan
14343;BME280;7255;53.596;9.960;2022-10-16T04:37:00;100819.31;;;12.68;nan
14343;BME280;7255;53.596;9.960;2022-10-16T04:39:27;100822.94;;;12.74;nan
14343;BME280;7255;53.596;9.960;2022-10-16T04:41:53;100823.75;;;12.75;nan
14343;BME280;7255;53.596;9.960;2022-10-16T04:44:19;100837.16;;;12.69;nan
14343;BME280;7255;53.596;9.960;2022-10-16T04:46:46;100847.09;;;12.69;nan
14343;BME280;7255;53.596;9.960;2022-10-16T04:49:13;100842.66;;;12.63;nan
14343;BME280;7255;53.596;9.960;2022-10-16T04:51:39;100853.91;;;12.60;nan
14343;BME280;7255;53.596;9.960;2022-10-16T04:54:06;100849.81;;;12.57;nan
14343;BME280;7255;53.596;9.960;2022-10-16T04:56:32;100841.84;;;12.62;nan
14343;BME280;7255;53.596;9.960;2022-10-16T04:59:05;100842.75;;;12.56;nan
14343;BME280;7255;53.596;9.960;2022-10-16T05:01:31;100848.50;;;12.60;nan
14343;BME280;7255;53.596;9.960;2022-10-16T05:03:58;100841.16;;;12.55;nan
14343;BME280;7255;53.596;9.960;2022-10-16T05:06:25;100847.00;;;12.52;nan
14343;BME280;7255;53.596;9.960;2022-10-16T05:08:52;100851.56;;;12.51;nan
14343;BME280;7255;53.596;9.960;2022-10-16T05:11:18;100840.44;;;12.48;nan
14343;BME280;7255;53.596;9.960;2022-10-16T05:13:44;100845.94;;;12.41;nan
14343;BME280;7255;53.596;9.960;2022-10-16T05:16:11;100853.34;;;12.46;nan
14343;BME280;7255;53.596;9.960;2022-10-16T05:18:37;100854.37;;;12.33;nan
14343;BME280;7255;53.596;9.960;2022-10-16T05:21:04;100863.84;;;12.36;nan
14343;BME280;7255;53.596;9.960;2022-10-16T05:23:32;100867.63;;;12.35;nan
14343;BME280;7255;53.596;9.960;2022-10-16T05:25:59;100869.25;;;12.36;nan
14343;BME280;7255;53.596;9.960;2022-10-16T05:28:26;100864.81;;;12.29;nan
14343;BME280;7255;53.596;9.960;2022-10-16T05:30:53;100856.50;;;12.31;nan
14343;BME280;7255;53.596;9.960;2022-10-16T05:33:22;100855.66;;;12.30;nan
14343;BME280;7255;53.596;9.960;2022-10-16T05:35:49;100860.13;;;12.37;nan
14343;BME280;7255;53.596;9.960;2022-10-16T05:38:16;100860.00;;;12.43;nan
14343;BME280;7255;53.596;9.960;2022-10-16T05:40:44;100870.78;;;12.43;nan
14343;BME280;7255;53.596;9.960;2022-10-16T05:43:16;100860.69;;;12.50;nan
14343;BME280;7255;53.596;9.960;2022-10-16T05:45:42;100863.06;;;12.59;nan
14343;BME280;7255;53.596;9.960;2022-10-16T05:48:08;100875.00;;;12.63;nan
14343;BME280;7255;53.596;9.960;2022-10-16T05:50:35;100870.78;;;12.67;nan
14343;BME280;7255;53.596;9.960;2022-10-16T05:53:01;100868.56;;;12.76;nan
14343;BME280;7255;53.596;9.960;2022-10-16T05:55:28;100868.91;;;12.79;nan
14343;BME280;7255;53.596;9.960;2022-10-16T05:57:55;100878.88;;;12.79;nan
14343;BME280;7255;53.596;9.960;2022-10-16T06:00:22;100881.66;;;12.84;nan
14343;BME280;7255;53.596;9.960;2022-10-16T06:02:48;100886.25;;;12.83;nan
14343;BME280;7255;53.596;9.960;2022-10-16T06:05:14;100887.06;;;12.84;nan
14343;BME280;7255;53.596;9.960;2022-10-16T06:07:41;100884.47;;;12.89;nan
14343;BME280;7255;53.596;9.960;2022-10-16T06:10:08;100883.06;;;12.98;nan
14343;BME280;7255;53.596;9.960;2022-10-16T06:12:34;100880.47;;;13.03;nan
14343;BME280;7255;53.596;9.960;2022-10-16T06:15:02;100883.28;;;13.08;nan
14343;BME280;7255;53.596;9.960;2022-10-16T06:17:28;100880.81;;;13.07;nan
14343;BME280;7255;53.596;9.960;2022-10-16T06:19:55;100882.59;;;13.01;nan
14343;BME280;7255;53.596;9.960;2022-10-16T06:22:21;100881.44;;;12.97;nan
14343;BME280;7255;53.596;9.960;2022-10-16T06:24:47;100890.44;;;13.03;nan
14343;BME280;7255;53.596;9.960;2022-10-16T06:27:14;100885.88;;;13.03;nan
14343;BME280;7255;53.596;9.960;2022-10-16T06:29:41;100891.37;;;12.97;nan
14343;BME280;7255;53.596;9.960;2022-10-16T06:32:09;100897.63;;;12.97;nan
14343;BME280;7255;53.596;9.960;2022-10-16T06:34:35;100897.13;;;13.00;nan
14343;BME280;7255;53.596;9.960;2022-10-16T06:37:02;100900.16;;;13.04;nan
14343;BME280;7255;53.596;9.960;2022-10-16T06:39:28;100899.94;;;13.05;nan
14343;BME280;7255;53.596;9.960;2022-10-16T06:41:54;100908.03;;;13.05;nan
14343;BME280;7255;53.596;9.960;2022-10-16T06:44:21;100901.59;;;13.06;nan
14343;BME280;7255;53.596;9.960;2022-10-16T06:46:47;100914.50;;;13.04;nan
14343;BME280;7255;53.596;9.960;2022-10-16T06:49:15;100928.41;;;13.13;nan
14343;BME280;7255;53.596;9.960;2022-10-16T06:51:46;100916.19;;;13.22;nan
14343;BME280;7255;53.596;9.960;2022-10-16T06:54:12;100927.84;;;13.23;nan
14343;BME280;7255;53.596;9.960;2022-10-16T06:56:41;100935.59;;;13.31;nan
14343;BME280;7255;53.596;9.960;2022-10-16T06:59:07;100929.81;;;13.39;nan
14343;BME280;7255;53.596;9.960;2022-10-16T07:01:33;100940.12;;;13.54;nan
14343;BME280;7255;53.596;9.960;2022-10-16T07:04:00;100940.00;;;13.61;nan
14343;BME280;7255;53.596;9.960;2022-10-16T07:06:31;100944.12;;;13.80;nan
14343;BME280;7255;53.596;9.960;2022-10-16T07:08:57;100954.91;;;13.92;nan
14343;BME280;7255;53.596;9.960;2022-10-16T07:11:24;100953.84;;;14.10;nan
14343;BME280;7255;53.596;9.960;2022-10-16T07:13:51;100961.44;;;14.25;nan
14343;BME280;7255;53.596;9.960;2022-10-16T07:16:19;100964.53;;;14.34;nan
14343;BME280;7255;53.596;9.960;2022-10-16T07:18:46;100955.25;;;14.41;nan
14343;BME280;7255;53.596;9.960;2022-10-16T07:21:15;100966.53;;;14.55;nan
14343;BME280;7255;53.596;9.960;2022-10-16T07:23:44;100968.19;;;14.56;nan
14343;BME280;7255;53.596;9.960;2022-10-16T07:26:11;100966.75;;;14.66;nan
14343;BME280;7255;53.596;9.960;2022-10-16T07:28:38;100971.50;;;14.58;nan
14343;BME280;7255;53.596;9.960;2022-10-16T07:31:06;100976.53;;;14.55;nan
14343;BME280;7255;53.596;9.960;2022-10-16T07:33:34;100992.56;;;14.44;nan
14343;BME280;7255;53.596;9.960;2022-10-16T07:36:01;100985.13;;;14.35;nan
14343;BME280;7255;53.596;9.960;2022-10-16T07:38:27;100996.97;;;14.34;nan
14343;BME280;7255;53.596;9.960;2022-10-16T07:40:58;100992.25;;;14.41;nan
14343;BME280;7255;53.596;9.960;2022-10-16T07:43:26;101006.53;;;14.53;nan
14343;BME280;7255;53.596;9.960;2022-10-16T07:45:53;101009.34;;;14.58;nan
14343;BME280;7255;53.596;9.960;2022-10-16T07:48:21;101002.94;;;14.65;nan
14343;BME280;7255;53.596;9.960;2022-10-16T07:50:47;101003.13;;;14.75;nan
14343;BME280;7255;53.596;9.960;2022-10-16T07:53:14;101005.41;;;14.83;nan
14343;BME280;7255;53.596;9.960;2022-10-16T07:55:40;101003.28;;;14.85;nan
14343;BME280;7255;53.596;9.960;2022-10-16T07:58:08;101009.84;;;14.89;nan
14343;BME280;7255;53.596;9.960;2022-10-16T08:00:36;101009.84;;;14.89;nan
14343;BME280;7255;53.596;9.960;2022-10-16T08:03:03;101017.88;;;14.84;nan
14343;BME280;7255;53.596;9.960;2022-10-16T08:05:31;101020.81;;;14.82;nan
14343;BME280;7255;53.596;9.960;2022-10-16T08:07:58;101033.44;;;14.77;nan
14343;BME280;7255;53.596;9.960;2022-10-16T08:10:26;101031.47;;;14.72;nan
14343;BME280;7255;53.596;9.960;2022-10-16T08:12:53;101032.44;;;14.66;nan
14343;BME280;7255;53.596;9.960;2022-10-16T08:15:21;101024.09;;;14.68;nan
14343;BME280;7255;53.596;9.960;2022-10-16T08:17:54;101038.84;;;14.60;nan
14343;BME280;7255;53.596;9.960;2022-10-16T08:20:21;101037.06;;;14.66;nan
14343;BME280;7255;53.596;9.960;2022-10-16T08:22:47;101037.06;;;14.66;nan
14343;BME280;7255;53.596;9.960;2022-10-16T08:25:14;101038.66;;;14.67;nan
14343;BME280;7255;53.596;9.960;2022-10-16T08:27:40;101037.63;;;14.56;nan
14343;BME280;7255;53.596;9.960;2022-10-16T08:30:08;101035.88;;;14.61;nan
14343;BME280;7255;53.596;9.960;2022-10-16T08:32:36;101034.09;;;14.67;nan
14343;BME280;7255;53.596;9.960;2022-10-16T08:35:02;101036.72;;;14.79;nan
14343;BME280;7255;53.596;9.960;2022-10-16T08:37:30;101038.53;;;14.90;nan
14343;BME280;7255;53.596;9.960;2022-10-16T08:39:56;101049.69;;;14.94;nan
14343;BME280;7255;53.596;9.960;2022-10-16T08:42:32;101050.81;;;14.98;nan
14343;BME280;7255;53.596;9.960;2022-10-16T08:45:15;101047.88;;;14.99;nan
14343;BME280;7255;53.596;9.960;2022-10-16T08:47:56;101034.75;;;15.08;nan
14343;BME280;7255;53.596;9.960;2022-10-16T08:50:28;101035.72;;;15.19;nan
14343;BME280;7255;53.596;9.960;2022-10-16T08:52:56;101053.09;;;15.23;nan
14343;BME280;7255;53.596;9.960;2022-10-16T08:55:30;101048.19;;;15.20;nan
14343;BME280;7255;53.596;9.960;2022-10-16T08:57:58;101052.28;;;15.23;nan
14343;BME280;7255;53.596;9.960;2022-10-16T09:00:26;101064.41;;;15.20;nan
14343;BME280;7255;53.596;9.960;2022-10-16T09:03:02;101071.81;;;15.25;nan
14343;BME280;7255;53.596;9.960;2022-10-16T09:05:45;101061.31;;;15.28;nan
14343;BME280;7255;53.596;9.960;2022-10-16T09:08:20;101066.56;;;15.35;nan
14343;BME280;7255;53.596;9.960;2022-10-16T09:10:56;101070.16;;;15.40;nan
14343;BME280;7255;53.596;9.960;2022-10-16T09:13:29;101076.22;;;15.48;nan
14343;BME280;7255;53.596;9.960;2022-10-16T09:16:01;101083.41;;;15.59;nan
14343;BME280;7255;53.596;9.960;2022-10-16T09:18:41;101071.56;;;15.65;nan
14343;BME280;7255;53.596;9.960;2022-10-16T09:21:13;101085.97;;;15.88;nan
14343;BME280;7255;53.596;9.960;2022-10-16T09:23:40;101088.28;;;15.96;nan
14343;BME280;7255;53.596;9.960;2022-10-16T09:26:10;101089.53;;;16.10;nan
14343;BME280;7255;53.596;9.960;2022-10-16T09:28:37;101108.37;;;16.22;nan
14343;BME280;7255;53.596;9.960;2022-10-16T09:31:04;101113.91;;;16.32;nan
14343;BME280;7255;53.596;9.960;2022-10-16T09:33:34;101110.34;;;16.27;nan
14343;BME280;7255;53.596;9.960;2022-10-16T09:36:05;101103.25;;;16.26;nan
14343;BME280;7255;53.596;9.960;2022-10-16T09:38:33;101105.59;;;16.17;nan
14343;BME280;7255;53.596;9.960;2022-10-16T09:41:02;101102.31;;;16.15;nan
14343;BME280;7255;53.596;9.960;2022-10-16T09:43:34;101096.25;;;16.08;nan
14343;BME280;7255;53.596;9.960;2022-10-16T09:46:04;101104.63;;;16.06;nan
14343;BME280;7255;53.596;9.960;2022-10-16T09:48:34;101096.88;;;16.15;nan
14343;BME280;7255;53.596;9.960;2022-10-16T09:51:05;101093.63;;;16.13;nan
14343;BME280;7255;53.596;9.960;2022-10-16T09:53:39;101101.31;;;16.21;nan
14343;BME280;7255;53.596;9.960;2022-10-16T09:56:06;101101.41;;;16.31;nan
14343;BME280;7255;53.596;9.960;2022-10-16T09:58:33;101110.75;;;16.41;nan
14343;BME280;7255;53.596;9.960;2022-10-16T10:00:59;101127.63;;;16.48;nan
14343;BME280;7255;53.596;9.960;2022-10-16T10:03:37;101126.72;;;16.64;nan
14343;BME280;7255;53.596;9.960;2022-10-16T10:06:17;101128.47;;;16.75;nan
14343;BME280;7255;53.596;9.960;2022-10-16T10:08:55;101135.84;;;16.80;nan
14343;BME280;7255;53.596;9.960;2022-10-16T10:11:42;101134.34;;;16.89;nan
14343;BME280;7255;53.596;9.960;2022-10-16T10:14:16;101135.66;;;16.87;nan
14343;BME280;7255;53.596;9.960;2022-10-16T10:16:43;101146.38;;;16.99;nan
14343;BME280;7255;53.596;9.960;2022-10-16T10:19:13;101154.50;;;16.99;nan
14343;BME280;7255;53.596;9.960;2022-10-16T10:21:41;101160.25;;;17.02;nan
14343;BME280;7255;53.596;9.960;2022-10-16T10:24:10;101162.16;;;17.07;nan
14343;BME280;7255;53.596;9.960;2022-10-16T10:26:37;101146.41;;;17.04;nan
14343;BME280;7255;53.596;9.960;2022-10-16T10:29:08;101144.25;;;17.06;nan
14343;BME280;7255;53.596;9.960;2022-10-16T10:31:44;101160.28;;;17.07;nan
14343;BME280;7255;53.596;9.960;2022-10-16T10:34:32;101166.59;;;17.13;nan
14343;BME280;7255;53.596;9.960;2022-10-16T10:37:12;101155.19;;;17.16;nan
14343;BME280;7255;53.596;9.960;2022-10-16T10:39:46;101152.22;;;17.18;nan
14343;BME280;7255;53.596;9.960;2022-10-16T10:42:25;101156.41;;;17.30;nan
14343;BME280;7255;53.596;9.960;2022-10-16T10:45:11;101165.28;;;17.53;nan
14343;BME280;7255;53.596;9.960;2022-10-16T10:47:43;101168.91;;;17.69;nan
14343;BME280;7255;53.596;9.960;2022-10-16T10:50:18;101168.69;;;17.76;nan
14343;BME280;7255;53.596;9.960;2022-10-16T10:52:59;101159.19;;;17.73;nan
14343;BME280;7255;53.596;9.960;2022-10-16T10:55:33;101177.41;;;17.78;nan
14343;BME280;7255;53.596;9.960;2022-10-16T10:58:19;101159.72;;;17.80;nan
14343;BME280;7255;53.596;9.960;2022-10-16T11:00:55;101158.47;;;17.93;nan
14343;BME280;7255;53.596;9.960;2022-10-16T11:03:35;101166.16;;;18.01;nan
14343;BME280;7255;53.596;9.960;2022-10-16T11:06:06;101157.47;;;18.09;nan
14343;BME280;7255;53.596;9.960;2022-10-16T11:08:39;101173.78;;;18.09;nan
14343;BME280;7255;53.596;9.960;2022-10-16T11:11:11;101166.16;;;18.01;nan
14343;BME280;7255;53.596;9.960;2022-10-16T11:13:45;101176.50;;;18.04;nan
14343;BME280;7255;53.596;9.960;2022-10-16T11:16:23;101181.41;;;18.07;nan
14343;BME280;7255;53.596;9.960;2022-10-16T11:18:58;101177.09;;;18.12;nan
14343;BME280;7255;53.596;9.960;2022-10-16T11:21:29;101183.34;;;18.12;nan
14343;BME280;7255;53.596;9.960;2022-10-16T11:24:01;101180.09;;;18.20;nan
14343;BME280;7255;53.596;9.960;2022-10-16T11:26:34;101177.69;;;18.29;nan
14343;BME280;7255;53.596;9.960;2022-10-16T11:29:03;101204.66;;;18.36;nan
14343;BME280;7255;53.596;9.960;2022-10-16T11:31:37;101183.94;;;18.30;nan
14343;BME280;7255;53.596;9.960;2022-10-16T11:34:09;101200.53;;;18.23;nan
14343;BME280;7255;53.596;9.960;2022-10-16T11:36:44;101201.12;;;18.40;nan
14343;BME280;7255;53.596;9.960;2022-10-16T11:39:20;101208.00;;;18.58;nan
14343;BME280;7255;53.596;9.960;2022-10-16T11:41:49;101218.09;;;18.68;nan
14343;BME280;7255;53.596;9.960;2022-10-16T11:44:27;101230.59;;;18.59;nan
14343;BME280;7255;53.596;9.960;2022-10-16T11:47:03;101223.09;;;18.23;nan
14343;BME280;7255;53.596;9.960;2022-10-16T11:49:36;101229.75;;;18.00;nan
14343;BME280;7255;53.596;9.960;2022-10-16T11:52:13;101228.34;;;17.93;nan
14343;BME280;7255;53.596;9.960;2022-10-16T11:54:47;101233.41;;;17.79;nan
14343;BME280;7255;53.596;9.960;2022-10-16T11:57:18;101228.88;;;17.89;nan
14343;BME280;7255;53.596;9.960;2022-10-16T11:59:50;101231.88;;;17.88;nan
14343;BME280;7255;53.596;9.960;2022-10-16T12:02:29;101234.66;;;18.03;nan
14343;BME280;7255;53.596;9.960;2022-10-16T12:05:17;101231.47;;;18.12;nan
14343;BME280;7255;53.596;9.960;2022-10-16T12:07:50;101241.50;;;18.11;nan
14343;BME280;7255;53.596;9.960;2022-10-16T12:10:24;101259.81;;;18.26;nan
14343;BME280;7255;53.596;9.960;2022-10-16T12:12:51;101243.19;;;18.22;nan
14343;BME280;7255;53.596;9.960;2022-10-16T12:15:21;101245.06;;;18.17;nan
14343;BME280;7255;53.596;9.960;2022-10-16T12:17:48;101257.37;;;18.24;nan
14343;BME280;7255;53.596;9.960;2022-10-16T12:20:25;101262.03;;;18.34;nan
14343;BME280;7255;53.596;9.960;2022-10-16T12:22:54;101259.88;;;18.36;nan
14343;BME280;7255;53.596;9.960;2022-10-16T12:25:25;101264.50;;;18.36;nan
14343;BME280;7255;53.596;9.960;2022-10-16T12:28:01;101269.53;;;18.12;nan
14343;BME280;7255;53.596;9.960;2022-10-16T12:30:30;101273.78;;;17.97;nan
14343;BME280;7255;53.596;9.960;2022-10-16T12:32:58;101271.97;;;17.76;nan
14343;BME280;7255;53.596;9.960;2022-10-16T12:35:28;101280.66;;;17.78;nan
14343;BME280;7255;53.596;9.960;2022-10-16T12:38:05;101280.56;;;17.67;nan
14343;BME280;7255;53.596;9.960;2022-10-16T12:40:35;101284.69;;;17.70;nan
14343;BME280;7255;53.596;9.960;2022-10-16T12:43:25;101280.97;;;17.81;nan
14343;BME280;7255;53.596;9.960;2022-10-16T12:45:59;101289.50;;;17.90;nan
14343;BME280;7255;53.596;9.960;2022-10-16T12:48:26;101300.66;;;17.94;nan
14343;BME280;7255;53.596;9.960;2022-10-16T12:50:53;101306.47;;;18.07;nan
14343;BME280;7255;53.596;9.960;2022-10-16T12:53:21;101300.00;;;18.14;nan
14343;BME280;7255;53.596;9.960;2022-10-16T12:55:57;101310.88;;;18.14;nan
14343;BME280;7255;53.596;9.960;2022-10-16T12:58:48;101307.63;;;17.84;nan
14343;BME280;7255;53.596;9.960;2022-10-16T13:04:23;101312.06;;;17.91;nan
14343;BME280;7255;53.596;9.960;2022-10-16T13:07:02;101316.53;;;18.07;nan
14343;BME280;7255;53.596;9.960;2022-10-16T13:09:40;101315.19;;;18.09;nan
14343;BME280;7255;53.596;9.960;2022-10-16T13:12:29;101313.16;;;17.95;nan
14343;BME280;7255;53.596;9.960;2022-10-16T13:15:16;101344.38;;;17.87;nan
14343;BME280;7255;53.596;9.960;2022-10-16T13:17:52;101327.00;;;17.93;nan
14343;BME280;7255;53.596;9.960;2022-10-16T13:20:27;101326.59;;;18.06;nan
14343;BME280;7255;53.596;9.960;2022-10-16T13:23:08;101341.94;;;18.23;nan
14343;BME280;7255;53.596;9.960;2022-10-16T13:25:46;101343.66;;;18.34;nan
14343;BME280;7255;53.596;9.960;2022-10-16T13:28:19;101349.31;;;18.27;nan
14343;BME280;7255;53.596;9.960;2022-10-16T13:30:52;101352.22;;;18.16;nan
14343;BME280;7255;53.596;9.960;2022-10-16T13:33:21;101348.34;;;18.06;nan
14343;BME280;7255;53.596;9.960;2022-10-16T13:35:51;101364.56;;;17.96;nan
14343;BME280;7255;53.596;9.960;2022-10-16T13:38:20;101361.59;;;17.98;nan
14343;BME280;7255;53.596;9.960;2022-10-16T13:40:51;101355.84;;;17.94;nan
14343;BME280;7255;53.596;9.960;2022-10-16T13:43:22;101358.13;;;18.02;nan